Time;durP1;ratioP1;P1;durP2;ratioP2;P2;SDS_P1;SDS_P2;PMS_P1;PMS_P2;Temp;Humidity;BMP_temperature;BMP_pressure;BME280_temperature;BME280_humidity;BME280_pressure;Samples;Min_cycle;Max_cycle;Signal;HPM_P1;HPM_P2
2024/03/21 00:00:35;;;;;;;12.37;9.90;;;12.50;99.90;;;;;;5050198;28;20181;-63
2024/03/21 00:03:00;;;;;;;11.97;9.47;;;12.50;99.90;;;;;;5050627;28;20548;-64
2024/03/21 00:05:30;;;;;;;15.50;10.13;;;12.50;99.90;;;;;;5050530;28;20551;-62
2024/03/21 00:07:56;;;;;;;21.20;10.90;;;12.50;99.90;;;;;;5050090;28;20265;-64
2024/03/21 00:10:22;;;;;;;15.43;10.77;;;12.60;99.90;;;;;;5049826;28;20516;-63
2024/03/21 00:12:51;;;;;;;14.00;10.63;;;12.50;99.90;;;;;;5048857;28;20449;-62
2024/03/21 00:15:17;;;;;;;15.07;10.10;;;12.50;99.90;;;;;;5043753;28;20457;-62
2024/03/21 00:17:44;;;;;;;10.87;9.77;;;12.50;99.90;;;;;;5049392;28;20511;-61
2024/03/21 00:20:10;;;;;;;15.93;10.03;;;12.50;99.90;;;;;;5050467;28;20418;-64
2024/03/21 00:22:37;;;;;;;12.83;10.83;;;12.50;99.90;;;;;;5047643;28;20426;-62
2024/03/21 00:25:03;;;;;;;16.10;10.70;;;12.50;99.90;;;;;;5050133;28;20884;-61
2024/03/21 00:27:30;;;;;;;13.80;10.00;;;12.50;99.90;;;;;;5050343;28;20505;-62
2024/03/21 00:29:56;;;;;;;13.30;10.20;;;12.50;99.90;;;;;;5049306;28;20426;-60
2024/03/21 00:32:21;;;;;;;15.33;10.93;;;12.50;99.90;;;;;;5045682;28;20422;-62
2024/03/21 00:34:47;;;;;;;15.50;10.80;;;12.50;99.90;;;;;;5050254;28;20207;-68
2024/03/21 00:37:12;;;;;;;13.70;9.73;;;12.50;99.90;;;;;;5050453;28;20214;-63
2024/03/21 00:39:42;;;;;;;14.17;9.60;;;12.50;99.90;;;;;;5028797;28;20637;-61
2024/03/21 00:42:09;;;;;;;14.37;9.97;;;12.50;99.90;;;;;;5042277;28;20222;-62
2024/03/21 00:44:35;;;;;;;16.73;12.10;;;12.50;99.90;;;;;;5049308;28;20441;-62
2024/03/21 00:47:00;;;;;;;13.90;10.47;;;12.50;99.90;;;;;;5049076;28;20426;-63
2024/03/21 00:49:26;;;;;;;17.17;10.40;;;12.50;99.90;;;;;;5050410;28;20195;-63
2024/03/21 00:51:51;;;;;;;14.17;10.63;;;12.50;99.90;;;;;;5049284;28;20262;-63
2024/03/21 00:54:17;;;;;;;18.40;10.40;;;12.50;99.90;;;;;;5049635;28;20556;-62
2024/03/21 00:56:43;;;;;;;15.20;10.47;;;12.50;99.90;;;;;;5049601;28;20203;-64
2024/03/21 00:59:08;;;;;;;14.37;10.50;;;12.50;99.90;;;;;;5047763;28;20183;-63
2024/03/21 01:01:34;;;;;;;18.30;12.10;;;12.50;99.90;;;;;;5048417;28;20179;-62
2024/03/21 01:03:59;;;;;;;15.63;11.20;;;12.50;99.90;;;;;;5049740;28;20186;-62
2024/03/21 01:06:25;;;;;;;17.03;11.53;;;12.40;99.90;;;;;;5049614;28;20212;-60
2024/03/21 01:08:51;;;;;;;17.50;11.00;;;12.50;99.90;;;;;;5047224;28;20191;-63
2024/03/21 01:11:17;;;;;;;15.17;10.27;;;12.40;99.90;;;;;;5049782;28;20187;-63
2024/03/21 01:13:42;;;;;;;18.67;11.00;;;12.40;99.90;;;;;;5049775;28;20470;-62
2024/03/21 01:16:08;;;;;;;17.23;11.07;;;12.40;99.90;;;;;;5052522;28;20848;-63
2024/03/21 01:18:37;;;;;;;16.17;10.90;;;12.40;99.90;;;;;;5045843;28;20324;-63
2024/03/21 01:21:05;;;;;;;13.23;10.80;;;12.40;99.90;;;;;;5050220;28;20403;-63
2024/03/21 01:23:31;;;;;;;15.80;11.70;;;12.30;99.90;;;;;;5050192;28;20410;-63
2024/03/21 01:25:58;;;;;;;14.13;10.70;;;12.30;99.90;;;;;;5048196;28;20461;-63
2024/03/21 01:28:23;;;;;;;17.17;10.40;;;12.20;99.90;;;;;;5048953;28;20956;-62
2024/03/21 01:30:49;;;;;;;17.43;11.83;;;12.30;99.90;;;;;;5048927;28;20515;-63
2024/03/21 01:33:14;;;;;;;13.87;10.20;;;12.20;99.90;;;;;;5048921;28;20240;-63
2024/03/21 01:35:40;;;;;;;16.43;11.70;;;12.20;99.90;;;;;;5048857;28;20198;-63
2024/03/21 01:38:06;;;;;;;15.03;11.90;;;12.20;99.90;;;;;;5049202;28;20186;-63
2024/03/21 01:40:32;;;;;;;15.80;11.17;;;12.20;99.90;;;;;;5047448;28;20194;-63
2024/03/21 01:42:58;;;;;;;13.57;11.53;;;12.30;99.90;;;;;;5046577;28;20263;-63
2024/03/21 01:45:23;;;;;;;13.80;10.87;;;12.30;99.90;;;;;;5048684;28;20494;-64
2024/03/21 01:47:49;;;;;;;18.90;12.50;;;12.30;99.90;;;;;;5048535;28;20208;-63
2024/03/21 01:50:15;;;;;;;12.80;10.20;;;12.30;99.90;;;;;;5048615;28;20182;-63
2024/03/21 01:52:42;;;;;;;13.23;11.03;;;12.30;99.90;;;;;;5048494;28;20436;-63
2024/03/21 01:55:14;;;;;;;19.73;10.60;;;12.20;99.90;;;;;;5049023;28;20268;-62
2024/03/21 01:57:40;;;;;;;23.33;12.77;;;12.30;99.90;;;;;;5047047;28;20460;-63
2024/03/21 02:00:07;;;;;;;15.40;11.53;;;12.30;99.90;;;;;;5048677;28;20421;-63
2024/03/21 02:02:34;;;;;;;13.90;12.37;;;12.30;99.90;;;;;;5049116;28;20414;-62
2024/03/21 02:04:59;;;;;;;16.73;12.87;;;12.20;99.90;;;;;;5047136;28;20476;-62
2024/03/21 02:07:26;;;;;;;20.57;10.90;;;12.20;99.90;;;;;;5048983;28;20507;-63
2024/03/21 02:09:52;;;;;;;17.00;11.93;;;12.20;99.90;;;;;;5048029;28;20237;-63
2024/03/21 02:12:44;;;;;;;13.43;11.43;;;12.10;99.90;;;;;;5041677;28;20449;-62
2024/03/21 02:15:11;;;;;;;16.60;12.17;;;12.10;99.90;;;;;;5047516;28;20218;-63
2024/03/21 02:17:37;;;;;;;16.17;11.27;;;12.10;99.90;;;;;;5048087;28;20538;-63
2024/03/21 02:20:03;;;;;;;15.93;11.60;;;12.00;99.90;;;;;;5048733;28;20805;-63
2024/03/21 02:22:36;;;;;;;15.83;11.87;;;12.00;99.90;;;;;;5049095;28;20428;-64
2024/03/21 02:25:12;;;;;;;19.57;12.80;;;12.00;99.90;;;;;;5049076;28;20441;-62
2024/03/21 02:27:39;;;;;;;18.00;12.73;;;12.00;99.90;;;;;;5048050;28;20424;-64
2024/03/21 02:30:09;;;;;;;14.97;11.90;;;11.90;99.90;;;;;;5046650;28;20438;-63
2024/03/21 02:32:35;;;;;;;16.40;12.73;;;11.80;99.90;;;;;;5047602;28;20811;-63
2024/03/21 02:35:03;;;;;;;19.07;13.57;;;11.90;99.90;;;;;;5048776;28;20453;-63
2024/03/21 02:37:29;;;;;;;16.50;11.77;;;11.90;99.90;;;;;;5047879;28;20465;-63
2024/03/21 02:39:55;;;;;;;16.80;11.03;;;11.80;99.90;;;;;;5048447;28;20823;-62
2024/03/21 02:42:21;;;;;;;17.70;12.13;;;11.80;99.90;;;;;;5046311;28;20179;-63
2024/03/21 02:44:48;;;;;;;15.63;11.37;;;11.80;99.90;;;;;;5048660;28;20448;-63
2024/03/21 02:47:15;;;;;;;15.40;12.67;;;11.80;99.90;;;;;;5047038;28;20438;-62
2024/03/21 02:49:41;;;;;;;16.57;13.37;;;11.80;99.90;;;;;;5047881;28;20413;-61
2024/03/21 02:52:06;;;;;;;15.37;12.27;;;11.80;99.90;;;;;;5053104;28;20859;-63
2024/03/21 02:54:32;;;;;;;19.10;13.00;;;11.80;99.90;;;;;;5052785;28;20223;-63
2024/03/21 02:57:11;;;;;;;18.23;12.80;;;11.80;99.90;;;;;;5040418;28;20214;-63
2024/03/21 02:59:37;;;;;;;13.47;10.40;;;11.70;99.90;;;;;;5051020;28;20437;-62
2024/03/21 03:02:03;;;;;;;17.57;13.90;;;11.60;99.90;;;;;;5051122;28;21191;-63
2024/03/21 03:04:30;;;;;;;19.17;12.20;;;11.70;99.90;;;;;;5050327;28;20790;-61
2024/03/21 03:06:55;;;;;;;16.27;11.47;;;11.60;99.90;;;;;;5051426;28;20590;-62
2024/03/21 03:09:21;;;;;;;20.37;13.40;;;11.60;99.90;;;;;;5051864;28;20944;-62
2024/03/21 03:11:46;;;;;;;14.97;11.53;;;11.60;99.90;;;;;;5051574;28;20178;-62
2024/03/21 03:14:12;;;;;;;17.10;12.17;;;11.60;99.90;;;;;;5050146;28;20187;-63
2024/03/21 03:16:38;;;;;;;14.37;10.40;;;11.60;99.90;;;;;;5050445;28;20202;-63
2024/03/21 03:19:04;;;;;;;19.03;12.70;;;11.70;99.90;;;;;;5049193;28;20598;-62
2024/03/21 03:21:30;;;;;;;15.47;11.73;;;11.70;99.90;;;;;;5033203;28;20190;-63
2024/03/21 03:23:56;;;;;;;18.57;12.97;;;11.60;99.90;;;;;;5051333;28;20422;-63
2024/03/21 03:26:21;;;;;;;21.07;13.07;;;11.50;99.90;;;;;;5051775;28;20239;-63
2024/03/21 03:28:47;;;;;;;16.80;11.50;;;11.50;99.90;;;;;;5051400;28;20183;-61
2024/03/21 03:31:13;;;;;;;17.97;13.97;;;11.50;99.90;;;;;;5047622;28;20183;-62
2024/03/21 03:36:23;;;;;;;16.07;11.30;;;11.40;99.90;;;;;;5049495;28;20217;-62
2024/03/21 03:38:49;;;;;;;18.70;12.10;;;11.40;99.90;;;;;;5051163;28;20420;-63
2024/03/21 03:41:16;;;;;;;19.70;13.67;;;11.40;99.90;;;;;;5050645;28;20507;-62
2024/03/21 03:43:41;;;;;;;21.47;13.17;;;11.30;99.90;;;;;;5049754;28;20197;-61
2024/03/21 03:46:07;;;;;;;19.40;14.20;;;11.30;99.90;;;;;;5048821;28;20456;-62
2024/03/21 03:48:32;;;;;;;18.47;14.30;;;11.30;99.90;;;;;;5051139;28;20205;-62
2024/03/21 03:50:58;;;;;;;20.07;14.03;;;11.30;99.90;;;;;;5049739;28;20186;-62
2024/03/21 03:53:24;;;;;;;18.17;14.23;;;11.20;99.90;;;;;;5050900;28;20497;-61
2024/03/21 03:55:49;;;;;;;19.13;12.53;;;11.20;99.90;;;;;;5049202;28;20206;-62
2024/03/21 03:58:15;;;;;;;18.80;14.13;;;11.20;99.90;;;;;;5049166;28;20241;-62
2024/03/21 04:00:40;;;;;;;19.27;14.10;;;11.10;99.90;;;;;;5049982;28;20183;-61
2024/03/21 04:03:06;;;;;;;15.93;13.07;;;11.10;99.90;;;;;;5050335;28;20262;-63
2024/03/21 04:05:32;;;;;;;24.43;15.43;;;11.10;99.90;;;;;;5050124;28;20186;-62
2024/03/21 04:07:57;;;;;;;22.83;15.27;;;11.00;99.90;;;;;;5049472;28;21074;-62
2024/03/21 04:10:23;;;;;;;22.00;14.37;;;11.00;99.90;;;;;;5050592;28;20183;-62
2024/03/21 04:12:48;;;;;;;20.77;14.63;;;11.00;99.90;;;;;;5049558;28;20687;-62
2024/03/21 04:15:14;;;;;;;17.27;12.67;;;11.00;99.90;;;;;;5048063;28;20278;-62
2024/03/21 04:17:40;;;;;;;18.57;13.60;;;11.00;99.90;;;;;;5049991;28;20286;-63
2024/03/21 04:20:06;;;;;;;18.40;14.70;;;11.00;99.90;;;;;;5049964;28;20189;-63
2024/03/21 04:22:35;;;;;;;20.53;14.50;;;10.90;99.90;;;;;;5049888;28;20195;-62
2024/03/21 04:25:03;;;;;;;21.30;15.17;;;10.90;99.90;;;;;;5049012;28;20446;-62
2024/03/21 04:27:29;;;;;;;20.70;15.73;;;10.90;99.90;;;;;;5050224;28;20428;-62
2024/03/21 04:29:55;;;;;;;19.30;13.60;;;10.90;99.90;;;;;;5029725;28;20433;-62
2024/03/21 04:32:20;;;;;;;19.17;14.03;;;10.80;99.90;;;;;;5050472;28;20934;-62
2024/03/21 04:34:46;;;;;;;21.87;15.37;;;10.80;99.90;;;;;;5049897;28;20318;-62
2024/03/21 04:37:17;;;;;;;16.70;13.33;;;10.80;99.90;;;;;;5049962;28;20786;-62
2024/03/21 04:39:47;;;;;;;20.13;14.90;;;10.80;99.90;;;;;;5050454;28;20424;-63
2024/03/21 04:42:17;;;;;;;19.27;14.40;;;10.90;99.90;;;;;;5048111;28;20524;-63
2024/03/21 04:44:43;;;;;;;21.03;15.37;;;10.80;99.90;;;;;;5048230;28;20438;-62
2024/03/21 04:47:09;;;;;;;23.17;14.50;;;10.80;99.90;;;;;;5049221;28;20420;-63
2024/03/21 04:49:35;;;;;;;20.20;14.93;;;10.80;99.90;;;;;;5049289;28;20497;-62
2024/03/21 04:52:01;;;;;;;21.80;14.13;;;10.80;99.90;;;;;;5050446;28;20498;-62
2024/03/21 04:54:26;;;;;;;17.90;14.63;;;10.80;99.90;;;;;;5049368;28;20270;-62
2024/03/21 04:56:52;;;;;;;24.00;14.47;;;10.80;99.90;;;;;;5049525;28;20772;-62
2024/03/21 04:59:17;;;;;;;21.63;14.47;;;10.80;99.90;;;;;;5047421;28;20186;-62
2024/03/21 05:01:43;;;;;;;19.03;15.10;;;10.70;99.90;;;;;;5048531;28;20554;-62
2024/03/21 05:04:08;;;;;;;24.43;15.53;;;10.70;99.90;;;;;;5049377;28;20257;-62
2024/03/21 05:06:34;;;;;;;20.67;15.23;;;10.70;99.90;;;;;;5049722;28;20206;-62
2024/03/21 05:09:00;;;;;;;23.93;15.80;;;10.70;99.90;;;;;;5030803;28;20270;-62
2024/03/21 05:11:26;;;;;;;22.00;15.60;;;10.70;99.90;;;;;;5049453;28;20191;-62
2024/03/21 05:13:52;;;;;;;21.60;14.50;;;10.70;99.90;;;;;;5048721;28;20230;-62
2024/03/21 05:16:17;;;;;;;25.83;15.47;;;10.70;99.90;;;;;;5048388;28;20794;-62
2024/03/21 05:18:43;;;;;;;25.40;15.43;;;10.80;99.90;;;;;;5047859;28;20224;-61
2024/03/21 05:21:09;;;;;;;24.83;14.73;;;10.80;99.90;;;;;;5048845;28;20182;-62
2024/03/21 05:23:35;;;;;;;23.43;15.40;;;10.80;99.90;;;;;;5048893;28;20646;-62
2024/03/21 05:26:01;;;;;;;18.53;14.37;;;10.80;99.90;;;;;;5048885;28;20449;-63
2024/03/21 05:28:27;;;;;;;21.53;14.77;;;10.80;99.90;;;;;;5048252;28;20727;-63
2024/03/21 05:30:53;;;;;;;21.70;15.13;;;10.80;99.90;;;;;;5048542;28;20261;-62
2024/03/21 05:33:18;;;;;;;20.60;15.73;;;10.80;99.90;;;;;;5047185;28;20484;-63
2024/03/21 05:35:44;;;;;;;19.37;14.00;;;10.80;99.90;;;;;;5048470;28;20957;-63
2024/03/21 05:38:11;;;;;;;20.70;14.43;;;10.80;99.90;;;;;;5049578;28;20186;-62
2024/03/21 05:40:36;;;;;;;27.37;16.57;;;10.80;99.90;;;;;;5048702;28;20205;-62
2024/03/21 05:43:02;;;;;;;17.93;14.57;;;10.70;99.90;;;;;;5047943;28;20536;-63
2024/03/21 05:45:28;;;;;;;22.70;14.57;;;10.80;99.90;;;;;;5023020;28;20214;-63
2024/03/21 05:47:53;;;;;;;22.00;15.17;;;10.80;99.90;;;;;;5048606;28;20183;-63
2024/03/21 05:50:19;;;;;;;20.97;14.60;;;10.80;99.90;;;;;;5049547;28;20195;-62
2024/03/21 05:52:44;;;;;;;20.90;14.60;;;10.80;99.90;;;;;;5049026;28;20197;-63
2024/03/21 05:55:10;;;;;;;18.17;13.93;;;10.80;99.90;;;;;;5049606;28;20284;-63
2024/03/21 05:57:36;;;;;;;23.30;14.97;;;10.80;99.90;;;;;;5049647;28;20768;-63
2024/03/21 06:00:06;;;;;;;21.70;15.23;;;10.80;99.90;;;;;;5049173;28;20179;-63
2024/03/21 06:02:32;;;;;;;20.40;16.27;;;10.70;99.90;;;;;;5049253;28;20237;-63
2024/03/21 06:04:58;;;;;;;19.10;14.57;;;10.80;99.90;;;;;;5050742;28;20955;-63
2024/03/21 06:07:23;;;;;;;19.37;15.03;;;10.90;99.90;;;;;;5050092;28;20445;-63
2024/03/21 06:09:49;;;;;;;23.10;15.70;;;10.90;99.90;;;;;;5049784;28;20425;-63
2024/03/21 06:12:15;;;;;;;20.30;14.60;;;11.00;99.90;;;;;;5049477;28;20214;-62
2024/03/21 06:14:40;;;;;;;20.03;14.10;;;11.10;99.90;;;;;;5048874;28;20260;-63
2024/03/21 06:17:06;;;;;;;18.90;14.37;;;11.20;99.90;;;;;;5046961;28;20211;-63
2024/03/21 06:19:32;;;;;;;23.63;15.53;;;11.30;99.90;;;;;;5048089;28;20297;-62
2024/03/21 06:21:58;;;;;;;19.70;13.10;;;11.20;99.90;;;;;;5051418;28;20507;-63
2024/03/21 06:24:23;;;;;;;21.83;14.93;;;11.40;99.90;;;;;;5052199;28;20372;-63
2024/03/21 06:26:49;;;;;;;21.63;16.33;;;11.30;99.90;;;;;;5051665;28;20421;-63
2024/03/21 06:29:15;;;;;;;19.60;14.60;;;11.30;99.90;;;;;;5033530;28;20242;-63
2024/03/21 06:31:40;;;;;;;25.50;18.03;;;11.40;99.90;;;;;;5049810;28;20210;-63
2024/03/21 06:34:07;;;;;;;22.50;14.60;;;11.30;99.90;;;;;;5052385;28;20197;-63
2024/03/21 06:36:32;;;;;;;19.30;15.07;;;11.30;99.90;;;;;;5051974;28;20245;-63
2024/03/21 06:38:58;;;;;;;20.80;14.37;;;11.40;99.90;;;;;;5051155;28;20465;-63
2024/03/21 06:41:24;;;;;;;23.23;14.20;;;11.40;99.90;;;;;;5052213;28;20649;-63
2024/03/21 06:43:50;;;;;;;21.00;15.07;;;11.40;99.90;;;;;;5052321;28;20431;-63
2024/03/21 06:46:16;;;;;;;18.57;14.17;;;11.40;99.90;;;;;;5049599;28;20660;-63
2024/03/21 06:48:41;;;;;;;24.50;14.67;;;11.20;99.90;;;;;;5047661;28;20478;-63
2024/03/21 06:51:08;;;;;;;18.80;15.10;;;11.10;99.90;;;;;;5051790;28;20187;-63
2024/03/21 06:53:34;;;;;;;21.40;14.30;;;11.10;99.90;;;;;;5051030;28;20190;-63
2024/03/21 06:56:00;;;;;;;19.67;15.50;;;11.00;99.90;;;;;;5052085;28;20783;-63
2024/03/21 06:58:27;;;;;;;23.87;18.00;;;11.00;99.90;;;;;;5051748;28;20429;-63
2024/03/21 07:00:53;;;;;;;25.47;14.97;;;10.90;99.90;;;;;;5051515;28;20558;-64
2024/03/21 07:03:19;;;;;;;22.57;15.80;;;10.80;99.90;;;;;;5052983;28;20907;-62
2024/03/21 07:05:45;;;;;;;23.67;16.47;;;11.00;99.90;;;;;;5051820;28;20441;-62
2024/03/21 07:08:11;;;;;;;21.93;15.63;;;11.00;99.90;;;;;;5034098;28;20845;-62
2024/03/21 07:10:36;;;;;;;26.70;17.00;;;11.00;99.90;;;;;;5048933;28;20649;-62
2024/03/21 07:13:02;;;;;;;24.10;17.13;;;10.80;99.90;;;;;;5048513;28;20191;-62
2024/03/21 07:15:28;;;;;;;25.60;17.30;;;10.80;99.90;;;;;;5051154;28;20210;-62
2024/03/21 07:17:54;;;;;;;28.17;16.63;;;10.80;99.90;;;;;;5051171;28;20674;-62
2024/03/21 07:20:20;;;;;;;23.53;18.00;;;10.80;99.90;;;;;;5050087;28;20190;-63
2024/03/21 07:22:46;;;;;;;23.13;17.17;;;10.80;99.90;;;;;;5045362;28;20636;-63
2024/03/21 07:25:11;;;;;;;35.27;17.43;;;10.70;99.90;;;;;;5051595;28;20324;-62
2024/03/21 07:27:38;;;;;;;28.93;18.37;;;10.60;99.90;;;;;;5050774;28;20902;-62
2024/03/21 07:30:08;;;;;;;25.83;17.07;;;10.70;99.90;;;;;;5050937;28;20341;-62
2024/03/21 07:32:37;;;;;;;25.40;18.27;;;10.80;99.90;;;;;;5049445;28;20515;-62
2024/03/21 07:35:03;;;;;;;25.80;19.10;;;10.80;99.90;;;;;;5050265;28;20453;-62
2024/03/21 07:37:29;;;;;;;25.80;19.13;;;10.80;99.90;;;;;;5050505;28;20540;-62
2024/03/21 07:39:55;;;;;;;29.27;20.53;;;10.80;99.90;;;;;;5051110;28;20516;-62
2024/03/21 07:42:21;;;;;;;25.03;18.50;;;10.70;99.90;;;;;;5050547;28;20183;-63
2024/03/21 07:44:46;;;;;;;35.83;22.30;;;10.80;99.90;;;;;;5048951;28;20590;-63
2024/03/21 07:47:12;;;;;;;37.27;25.47;;;10.80;99.90;;;;;;5050432;28;20436;-63
2024/03/21 07:49:38;;;;;;;29.67;20.30;;;10.90;99.90;;;;;;5049593;28;20556;-62
2024/03/21 07:52:04;;;;;;;34.63;21.73;;;10.60;99.90;;;;;;5052047;28;20193;-63
2024/03/21 07:54:30;;;;;;;28.47;19.37;;;10.40;99.90;;;;;;5050416;28;20543;-64
2024/03/21 07:56:58;;;;;;;30.40;19.77;;;10.50;99.90;;;;;;5049803;28;20258;-63
2024/03/21 07:59:24;;;;;;;27.00;18.13;;;10.60;99.90;;;;;;5050288;28;20587;-62
2024/03/21 08:01:50;;;;;;;30.93;18.73;;;10.50;99.90;;;;;;5051065;28;20570;-63
2024/03/21 08:04:15;;;;;;;29.33;18.83;;;10.60;99.90;;;;;;5050011;28;20418;-62
2024/03/21 08:06:41;;;;;;;26.73;18.67;;;10.60;99.90;;;;;;5050475;28;20441;-61
2024/03/21 08:09:09;;;;;;;31.03;21.60;;;10.40;99.90;;;;;;5049361;28;20272;-63
2024/03/21 08:11:37;;;;;;;31.17;20.20;;;10.30;99.90;;;;;;5046272;28;20262;-62
2024/03/21 08:14:03;;;;;;;31.00;21.33;;;10.10;99.90;;;;;;5050892;28;20977;-62
2024/03/21 08:16:29;;;;;;;30.27;20.57;;;10.20;99.90;;;;;;5049170;28;20480;-63
2024/03/21 08:18:54;;;;;;;34.77;21.57;;;10.40;99.90;;;;;;5048475;28;20191;-62
2024/03/21 08:21:21;;;;;;;28.87;18.90;;;10.70;99.90;;;;;;5050341;28;20823;-62
2024/03/21 08:23:47;;;;;;;37.73;23.90;;;10.80;99.90;;;;;;5046269;28;20256;-63
2024/03/21 08:26:13;;;;;;;36.27;23.47;;;10.80;99.90;;;;;;5049590;28;20883;-63
2024/03/21 08:28:39;;;;;;;29.87;22.67;;;10.80;99.90;;;;;;5050459;28;20429;-63
2024/03/21 08:31:04;;;;;;;28.13;20.17;;;10.80;99.90;;;;;;5050291;28;20218;-62
2024/03/21 08:33:30;;;;;;;28.60;20.83;;;10.80;99.90;;;;;;5049587;28;20197;-63
2024/03/21 08:35:56;;;;;;;33.60;22.50;;;10.90;99.90;;;;;;5049755;28;20294;-64
2024/03/21 08:38:22;;;;;;;33.77;20.30;;;10.60;99.90;;;;;;5052179;28;20661;-64
2024/03/21 08:40:54;;;;;;;32.63;23.27;;;10.70;99.90;;;;;;5049683;28;20194;-64
2024/03/21 08:43:20;;;;;;;32.27;21.80;;;10.70;99.90;;;;;;5050683;28;20417;-64
2024/03/21 08:45:47;;;;;;;31.70;22.10;;;10.80;99.90;;;;;;5049734;28;20598;-63
2024/03/21 08:48:13;;;;;;;26.60;20.67;;;10.60;99.90;;;;;;5047773;28;20443;-63
2024/03/21 08:50:40;;;;;;;44.30;21.10;;;10.60;99.90;;;;;;5052273;28;20429;-64
2024/03/21 08:53:06;;;;;;;31.57;20.30;;;10.90;99.90;;;;;;5051043;28;20448;-63
2024/03/21 08:55:35;;;;;;;38.70;23.67;;;10.80;99.90;;;;;;5051580;28;20464;-64
2024/03/21 08:58:04;;;;;;;35.00;23.80;;;11.00;99.90;;;;;;5051097;28;20209;-64
2024/03/21 09:00:33;;;;;;;33.40;22.67;;;11.10;99.90;;;;;;5050795;28;20884;-64
2024/03/21 09:03:02;;;;;;;28.60;20.30;;;11.20;99.90;;;;;;5051688;28;20417;-64
2024/03/21 09:05:28;;;;;;;30.07;20.03;;;11.20;99.90;;;;;;5051414;28;20902;-63
2024/03/21 09:07:55;;;;;;;24.10;17.17;;;11.20;99.90;;;;;;5052142;28;20495;-64
2024/03/21 09:10:20;;;;;;;30.03;20.10;;;11.40;99.90;;;;;;5051779;28;20433;-64
2024/03/21 09:12:46;;;;;;;23.80;17.33;;;11.40;99.90;;;;;;5051932;28;20435;-64
2024/03/21 09:15:17;;;;;;;26.80;18.53;;;11.10;99.90;;;;;;5050903;28;20301;-63
2024/03/21 09:17:43;;;;;;;32.63;19.90;;;11.30;99.90;;;;;;5048622;28;20548;-64
2024/03/21 09:20:09;;;;;;;26.47;17.90;;;11.40;99.90;;;;;;5052236;28;20457;-63
2024/03/21 09:22:35;;;;;;;24.93;18.83;;;11.50;99.90;;;;;;5052387;28;20769;-63
2024/03/21 09:25:01;;;;;;;35.07;20.40;;;11.60;99.90;;;;;;5050506;28;20256;-63
2024/03/21 09:27:27;;;;;;;26.60;18.93;;;11.80;99.90;;;;;;5050686;28;20721;-64
2024/03/21 09:29:53;;;;;;;29.83;21.23;;;11.70;99.90;;;;;;5051428;28;20655;-63
2024/03/21 09:32:19;;;;;;;30.10;19.73;;;11.60;99.90;;;;;;5051840;28;20533;-63
2024/03/21 09:34:51;;;;;;;25.70;18.00;;;11.80;99.90;;;;;;5051920;28;20287;-63
2024/03/21 09:37:22;;;;;;;33.83;19.10;;;11.80;99.90;;;;;;5050929;28;20527;-63
2024/03/21 09:39:48;;;;;;;29.13;19.93;;;12.00;99.90;;;;;;5052118;28;20432;-63
2024/03/21 09:42:19;;;;;;;26.50;19.57;;;11.90;99.90;;;;;;5050137;28;20837;-63
2024/03/21 09:44:48;;;;;;;26.47;18.67;;;11.90;99.90;;;;;;5049956;28;20198;-63
2024/03/21 09:47:19;;;;;;;22.10;15.97;;;11.90;99.90;;;;;;5050531;28;20429;-62
2024/03/21 09:49:46;;;;;;;21.13;16.67;;;12.20;99.90;;;;;;5050124;28;20503;-63
2024/03/21 09:52:12;;;;;;;22.97;16.83;;;12.30;99.90;;;;;;5032387;28;20421;-63
2024/03/21 09:54:38;;;;;;;18.23;14.17;;;12.30;99.90;;;;;;5049478;28;20477;-63
2024/03/21 09:57:05;;;;;;;20.00;16.13;;;12.40;99.90;;;;;;5049156;28;20889;-63
2024/03/21 09:59:31;;;;;;;20.97;16.40;;;12.40;99.90;;;;;;5050041;28;20557;-63
2024/03/21 10:01:57;;;;;;;21.13;16.83;;;12.60;99.90;;;;;;5049951;28;20482;-64
2024/03/21 10:04:23;;;;;;;20.60;15.80;;;12.80;99.90;;;;;;5049415;28;20191;-63
2024/03/21 10:06:49;;;;;;;21.07;16.73;;;12.90;99.90;;;;;;5050425;28;20191;-63
2024/03/21 10:09:15;;;;;;;21.60;15.63;;;12.90;99.90;;;;;;5050548;28;20969;-63
2024/03/21 10:11:43;;;;;;;23.50;15.77;;;12.90;99.90;;;;;;5049664;28;20502;-63
2024/03/21 10:14:13;;;;;;;16.23;14.00;;;13.10;99.90;;;;;;5032307;28;20441;-64
2024/03/21 10:16:42;;;;;;;17.23;14.27;;;13.30;99.90;;;;;;5050746;28;20460;-63
2024/03/21 10:19:11;;;;;;;16.93;12.73;;;13.40;99.90;;;;;;5049526;28;20433;-64
2024/03/21 10:21:37;;;;;;;18.03;12.93;;;13.40;99.90;;;;;;5050440;28;20426;-63
2024/03/21 10:24:05;;;;;;;16.17;12.87;;;13.70;99.90;;;;;;5033225;28;20438;-63
2024/03/21 10:26:31;;;;;;;13.57;11.87;;;13.50;99.90;;;;;;5050452;28;20476;-63
2024/03/21 10:28:57;;;;;;;16.67;10.23;;;13.30;99.90;;;;;;5049977;28;20433;-63
2024/03/21 10:31:23;;;;;;;14.87;10.60;;;13.40;99.90;;;;;;5032508;28;20812;-64
2024/03/21 10:33:54;;;;;;;10.53;9.20;;;13.50;99.90;;;;;;5050390;28;20274;-62
2024/03/21 10:36:20;;;;;;;11.03;9.40;;;13.40;99.90;;;;;;5050022;28;20772;-62
2024/03/21 10:38:47;;;;;;;13.10;9.40;;;13.40;99.90;;;;;;5049305;28;20517;-63
2024/03/21 10:41:24;;;;;;;12.37;9.50;;;13.60;99.90;;;;;;5051158;28;20904;-63
2024/03/21 10:43:57;;;;;;;10.50;6.97;;;13.80;99.90;;;;;;5050822;28;20445;-63
2024/03/21 10:46:27;;;;;;;7.80;6.00;;;13.90;99.90;;;;;;5032409;28;20494;-63
2024/03/21 10:48:53;;;;;;;7.60;5.83;;;14.00;99.90;;;;;;5051338;28;20942;-63
2024/03/21 10:51:21;;;;;;;5.57;3.43;;;14.00;99.90;;;;;;5050819;28;20425;-63
2024/03/21 10:53:56;;;;;;;6.87;3.90;;;14.00;99.90;;;;;;5051150;28;20503;-64
2024/03/21 10:56:37;;;;;;;6.10;4.40;;;14.10;99.90;;;;;;5050474;28;20457;-63
2024/03/21 10:59:03;;;;;;;6.80;4.87;;;14.00;99.90;;;;;;5050753;28;20441;-63
2024/03/21 11:01:47;;;;;;;5.93;5.33;;;14.00;99.90;;;;;;5050809;28;20446;-64
2024/03/21 11:04:16;;;;;;;8.57;5.37;;;14.00;99.90;;;;;;5050504;28;20444;-63
2024/03/21 11:06:45;;;;;;;6.20;5.43;;;14.30;99.90;;;;;;5055040;28;20417;-63
2024/03/21 11:09:14;;;;;;;8.00;6.00;;;14.50;99.90;;;;;;5059527;28;20902;-63
2024/03/21 11:11:40;;;;;;;9.23;6.07;;;14.50;99.90;;;;;;5058397;28;20426;-63
2024/03/21 11:14:09;;;;;;;6.23;5.07;;;14.40;99.90;;;;;;5058300;28;20740;-63
2024/03/21 11:16:37;;;;;;;6.40;4.53;;;14.80;99.90;;;;;;5058500;28;20258;-63
2024/03/21 11:19:03;;;;;;;6.10;4.87;;;15.00;99.90;;;;;;5058967;28;20425;-63
2024/03/21 11:21:29;;;;;;;5.13;4.07;;;15.10;99.90;;;;;;5059013;28;20426;-63
2024/03/21 11:23:55;;;;;;;5.13;4.63;;;15.00;99.90;;;;;;5056976;28;20808;-63
2024/03/21 11:26:21;;;;;;;6.77;4.97;;;14.90;99.90;;;;;;5051215;28;20453;-64
2024/03/21 11:28:50;;;;;;;5.23;4.07;;;14.90;99.90;;;;;;5053409;28;20662;-63
2024/03/21 11:31:27;;;;;;;8.90;4.00;;;15.30;99.90;;;;;;5053451;28;20189;-63
2024/03/21 11:33:53;;;;;;;3.93;3.50;;;15.40;99.90;;;;;;5053754;28;20422;-63
2024/03/21 11:36:20;;;;;;;3.90;3.33;;;15.30;99.90;;;;;;5054729;28;20837;-63
2024/03/21 11:38:49;;;;;;;4.67;4.27;;;15.60;99.90;;;;;;5049918;28;20196;-63
2024/03/21 11:41:22;;;;;;;4.70;4.23;;;15.40;99.90;;;;;;5053479;28;20428;-64
2024/03/21 11:43:48;;;;;;;5.67;4.77;;;15.60;99.90;;;;;;5052154;28;20531;-64
2024/03/21 11:46:14;;;;;;;5.40;4.37;;;16.10;99.90;;;;;;5049898;28;20463;-64
2024/03/21 11:48:40;;;;;;;4.80;4.37;;;16.30;99.90;;;;;;5050638;28;20196;-64
2024/03/21 11:51:06;;;;;;;5.17;4.67;;;16.00;99.90;;;;;;5054449;28;20455;-64
2024/03/21 11:53:31;;;;;;;5.60;4.63;;;15.70;99.90;;;;;;5053529;28;20224;-64
2024/03/21 11:55:57;;;;;;;4.90;4.07;;;15.70;99.90;;;;;;5054088;28;20872;-64
2024/03/21 11:58:23;;;;;;;8.27;4.23;;;15.70;99.90;;;;;;5055032;28;20192;-64
2024/03/21 12:00:48;;;;;;;4.87;3.47;;;15.30;99.90;;;;;;5046110;28;20246;-64
2024/03/21 12:03:14;;;;;;;3.87;3.47;;;15.50;99.90;;;;;;5054176;28;20592;-64
2024/03/21 12:05:39;;;;;;;4.27;3.87;;;15.70;99.90;;;;;;5054506;28;20200;-64
2024/03/21 12:08:05;;;;;;;4.67;4.27;;;15.50;99.90;;;;;;5053560;28;20296;-64
2024/03/21 12:10:31;;;;;;;4.07;3.57;;;15.10;99.90;;;;;;5052448;28;20219;-64
2024/03/21 12:12:56;;;;;;;4.67;4.03;;;15.20;99.90;;;;;;5054670;28;20217;-64
2024/03/21 12:15:22;;;;;;;4.60;4.17;;;15.50;99.90;;;;;;5053805;28;20315;-64
2024/03/21 12:17:48;;;;;;;4.43;3.97;;;15.50;99.90;;;;;;5052335;28;20282;-65
2024/03/21 12:20:13;;;;;;;4.63;3.63;;;16.10;99.90;;;;;;5051578;28;20522;-64
2024/03/21 12:22:39;;;;;;;6.03;4.30;;;16.30;99.90;;;;;;5055272;28;20197;-64
2024/03/21 12:25:06;;;;;;;4.00;3.60;;;16.70;99.90;;;;;;5053575;28;20238;-65
2024/03/21 12:27:31;;;;;;;4.13;3.73;;;16.60;99.90;;;;;;5051933;28;20189;-64
2024/03/21 12:29:57;;;;;;;5.23;4.30;;;16.70;99.90;;;;;;5055246;28;20424;-63